sensor_id;sensor_type;location;lat;lon;timestamp;P1;durP1;ratioP1;P2;durP2;ratioP2
20828;SDS011;10575;50.124;8.582;2023-05-10T00:01:03;2.63;;;1.40;;
20828;SDS011;10575;50.124;8.582;2023-05-10T00:03:29;1.80;;;1.33;;
20828;SDS011;10575;50.124;8.582;2023-05-10T00:05:54;1.40;;;1.10;;
20828;SDS011;10575;50.124;8.582;2023-05-10T00:08:20;2.47;;;1.30;;
20828;SDS011;10575;50.124;8.582;2023-05-10T00:10:45;2.78;;;1.10;;
20828;SDS011;10575;50.124;8.582;2023-05-10T00:13:14;3.60;;;1.10;;
20828;SDS011;10575;50.124;8.582;2023-05-10T00:15:40;1.17;;;1.10;;
20828;SDS011;10575;50.124;8.582;2023-05-10T00:18:05;4.10;;;1.20;;
20828;SDS011;10575;50.124;8.582;2023-05-10T00:20:31;1.40;;;0.93;;
20828;SDS011;10575;50.124;8.582;2023-05-10T00:22:56;2.08;;;0.80;;
20828;SDS011;10575;50.124;8.582;2023-05-10T00:25:22;1.85;;;0.95;;
20828;SDS011;10575;50.124;8.582;2023-05-10T00:27:47;2.72;;;1.00;;
20828;SDS011;10575;50.124;8.582;2023-05-10T00:30:13;1.42;;;0.98;;
20828;SDS011;10575;50.124;8.582;2023-05-10T00:32:38;2.17;;;1.02;;
20828;SDS011;10575;50.124;8.582;2023-05-10T00:35:04;3.33;;;0.85;;
20828;SDS011;10575;50.124;8.582;2023-05-10T00:37:30;3.78;;;0.80;;
20828;SDS011;10575;50.124;8.582;2023-05-10T00:39:55;1.10;;;1.00;;
20828;SDS011;10575;50.124;8.582;2023-05-10T00:42:21;1.20;;;0.88;;
20828;SDS011;10575;50.124;8.582;2023-05-10T00:44:47;1.17;;;0.80;;
20828;SDS011;10575;50.124;8.582;2023-05-10T00:47:12;1.52;;;0.80;;
20828;SDS011;10575;50.124;8.582;2023-05-10T00:49:38;1.45;;;0.90;;
20828;SDS011;10575;50.124;8.582;2023-05-10T00:52:05;2.80;;;0.98;;
20828;SDS011;10575;50.124;8.582;2023-05-10T00:54:31;1.35;;;0.80;;
20828;SDS011;10575;50.124;8.582;2023-05-10T00:56:56;0.90;;;0.65;;
20828;SDS011;10575;50.124;8.582;2023-05-10T00:59:22;1.13;;;0.70;;
20828;SDS011;10575;50.124;8.582;2023-05-10T01:01:48;2.25;;;0.85;;
20828;SDS011;10575;50.124;8.582;2023-05-10T01:04:14;1.48;;;0.90;;
20828;SDS011;10575;50.124;8.582;2023-05-10T01:06:40;3.00;;;1.02;;
20828;SDS011;10575;50.124;8.582;2023-05-10T01:09:06;4.00;;;1.00;;
20828;SDS011;10575;50.124;8.582;2023-05-10T01:11:33;2.67;;;0.98;;
20828;SDS011;10575;50.124;8.582;2023-05-10T01:14:00;3.25;;;1.20;;
20828;SDS011;10575;50.124;8.582;2023-05-10T01:16:26;1.20;;;1.05;;
20828;SDS011;10575;50.124;8.582;2023-05-10T01:18:52;1.33;;;1.08;;
20828;SDS011;10575;50.124;8.582;2023-05-10T01:27:14;1.58;;;1.23;;
20828;SDS011;10575;50.124;8.582;2023-05-10T01:46:38;1.08;;;0.98;;
20828;SDS011;10575;50.124;8.582;2023-05-10T01:49:07;0.70;;;0.70;;
20828;SDS011;10575;50.124;8.582;2023-05-10T01:51:54;0.80;;;0.80;;
20828;SDS011;10575;50.124;8.582;2023-05-10T01:54:22;2.65;;;0.70;;
20828;SDS011;10575;50.124;8.582;2023-05-10T01:56:50;2.28;;;0.60;;
20828;SDS011;10575;50.124;8.582;2023-05-10T01:59:20;0.75;;;0.75;;
20828;SDS011;10575;50.124;8.582;2023-05-10T02:01:47;1.10;;;0.70;;
20828;SDS011;10575;50.124;8.582;2023-05-10T02:04:14;3.67;;;0.68;;
20828;SDS011;10575;50.124;8.582;2023-05-10T02:06:41;2.03;;;0.88;;
20828;SDS011;10575;50.124;8.582;2023-05-10T02:09:09;2.40;;;0.82;;
20828;SDS011;10575;50.124;8.582;2023-05-10T02:11:37;3.03;;;0.77;;
20828;SDS011;10575;50.124;8.582;2023-05-10T02:14:05;3.92;;;0.80;;
20828;SDS011;10575;50.124;8.582;2023-05-10T02:16:34;1.63;;;0.80;;
20828;SDS011;10575;50.124;8.582;2023-05-10T02:19:01;1.38;;;0.90;;
20828;SDS011;10575;50.124;8.582;2023-05-10T02:21:28;1.27;;;0.98;;
20828;SDS011;10575;50.124;8.582;2023-05-10T02:23:55;1.55;;;1.20;;
20828;SDS011;10575;50.124;8.582;2023-05-10T02:26:22;1.02;;;0.93;;
20828;SDS011;10575;50.124;8.582;2023-05-10T02:28:49;1.92;;;1.10;;
20828;SDS011;10575;50.124;8.582;2023-05-10T02:31:16;5.78;;;1.00;;
20828;SDS011;10575;50.124;8.582;2023-05-10T02:33:43;0.80;;;0.80;;
20828;SDS011;10575;50.124;8.582;2023-05-10T02:36:10;4.15;;;1.10;;
20828;SDS011;10575;50.124;8.582;2023-05-10T02:38:37;1.90;;;1.30;;
20828;SDS011;10575;50.124;8.582;2023-05-10T02:41:03;1.85;;;1.13;;
20828;SDS011;10575;50.124;8.582;2023-05-10T02:43:32;1.75;;;1.00;;
20828;SDS011;10575;50.124;8.582;2023-05-10T02:45:58;3.33;;;1.52;;
20828;SDS011;10575;50.124;8.582;2023-05-10T02:48:24;2.67;;;1.10;;
20828;SDS011;10575;50.124;8.582;2023-05-10T02:50:50;3.90;;;1.42;;
20828;SDS011;10575;50.124;8.582;2023-05-10T02:53:21;1.40;;;1.10;;
20828;SDS011;10575;50.124;8.582;2023-05-10T02:55:49;2.20;;;1.10;;
20828;SDS011;10575;50.124;8.582;2023-05-10T02:58:17;1.30;;;1.15;;
20828;SDS011;10575;50.124;8.582;2023-05-10T03:00:44;3.17;;;1.20;;
20828;SDS011;10575;50.124;8.582;2023-05-10T03:03:10;2.22;;;0.95;;
20828;SDS011;10575;50.124;8.582;2023-05-10T03:05:36;1.58;;;1.00;;
20828;SDS011;10575;50.124;8.582;2023-05-10T03:08:01;6.10;;;1.20;;
20828;SDS011;10575;50.124;8.582;2023-05-10T03:10:29;1.60;;;1.05;;
20828;SDS011;10575;50.124;8.582;2023-05-10T03:13:09;2.05;;;1.30;;
20828;SDS011;10575;50.124;8.582;2023-05-10T03:18:29;3.13;;;1.00;;
20828;SDS011;10575;50.124;8.582;2023-05-10T03:21:10;2.83;;;1.23;;
20828;SDS011;10575;50.124;8.582;2023-05-10T03:23:47;3.35;;;1.30;;
20828;SDS011;10575;50.124;8.582;2023-05-10T03:26:20;5.43;;;1.00;;
20828;SDS011;10575;50.124;8.582;2023-05-10T03:28:50;2.38;;;0.95;;
20828;SDS011;10575;50.124;8.582;2023-05-10T03:31:17;1.40;;;0.90;;
20828;SDS011;10575;50.124;8.582;2023-05-10T03:33:50;1.40;;;0.90;;
20828;SDS011;10575;50.124;8.582;2023-05-10T03:36:16;3.40;;;1.63;;
20828;SDS011;10575;50.124;8.582;2023-05-10T03:38:42;2.50;;;1.23;;
20828;SDS011;10575;50.124;8.582;2023-05-10T03:41:08;1.23;;;0.80;;
20828;SDS011;10575;50.124;8.582;2023-05-10T03:43:33;1.42;;;1.20;;
20828;SDS011;10575;50.124;8.582;2023-05-10T03:46:01;4.53;;;1.27;;
20828;SDS011;10575;50.124;8.582;2023-05-10T03:48:27;1.17;;;0.93;;
20828;SDS011;10575;50.124;8.582;2023-05-10T03:50:53;2.70;;;0.90;;
20828;SDS011;10575;50.124;8.582;2023-05-10T03:53:18;3.40;;;1.60;;
20828;SDS011;10575;50.124;8.582;2023-05-10T03:55:44;2.85;;;1.30;;
20828;SDS011;10575;50.124;8.582;2023-05-10T03:58:12;5.22;;;1.27;;
20828;SDS011;10575;50.124;8.582;2023-05-10T04:00:38;2.53;;;1.27;;
20828;SDS011;10575;50.124;8.582;2023-05-10T04:03:08;10.82;;;1.55;;
20828;SDS011;10575;50.124;8.582;2023-05-10T04:05:34;2.53;;;1.15;;
20828;SDS011;10575;50.124;8.582;2023-05-10T04:08:00;2.00;;;1.30;;
20828;SDS011;10575;50.124;8.582;2023-05-10T04:10:26;1.58;;;1.20;;
20828;SDS011;10575;50.124;8.582;2023-05-10T04:12:51;12.27;;;2.20;;
20828;SDS011;10575;50.124;8.582;2023-05-10T04:15:17;2.85;;;1.27;;
20828;SDS011;10575;50.124;8.582;2023-05-10T04:17:43;4.55;;;1.60;;
20828;SDS011;10575;50.124;8.582;2023-05-10T04:20:08;4.60;;;1.27;;
20828;SDS011;10575;50.124;8.582;2023-05-10T04:22:34;2.72;;;1.40;;
20828;SDS011;10575;50.124;8.582;2023-05-10T04:25:00;2.42;;;1.48;;
20828;SDS011;10575;50.124;8.582;2023-05-10T04:27:25;4.15;;;1.50;;
20828;SDS011;10575;50.124;8.582;2023-05-10T04:29:51;5.43;;;1.73;;
20828;SDS011;10575;50.124;8.582;2023-05-10T04:32:16;5.25;;;1.83;;
20828;SDS011;10575;50.124;8.582;2023-05-10T04:34:42;3.13;;;1.63;;
20828;SDS011;10575;50.124;8.582;2023-05-10T04:37:08;2.85;;;1.42;;
20828;SDS011;10575;50.124;8.582;2023-05-10T04:39:34;3.58;;;1.40;;
20828;SDS011;10575;50.124;8.582;2023-05-10T04:42:00;2.08;;;1.65;;
20828;SDS011;10575;50.124;8.582;2023-05-10T04:44:27;3.50;;;1.65;;
20828;SDS011;10575;50.124;8.582;2023-05-10T04:46:54;4.13;;;1.45;;
20828;SDS011;10575;50.124;8.582;2023-05-10T04:49:20;2.13;;;1.50;;
20828;SDS011;10575;50.124;8.582;2023-05-10T04:51:45;4.20;;;1.50;;
20828;SDS011;10575;50.124;8.582;2023-05-10T04:54:11;3.28;;;2.03;;
20828;SDS011;10575;50.124;8.582;2023-05-10T04:56:37;3.17;;;1.63;;
20828;SDS011;10575;50.124;8.582;2023-05-10T04:59:02;3.13;;;1.92;;
20828;SDS011;10575;50.124;8.582;2023-05-10T05:01:28;2.50;;;1.55;;
20828;SDS011;10575;50.124;8.582;2023-05-10T05:03:53;2.13;;;1.60;;
20828;SDS011;10575;50.124;8.582;2023-05-10T05:06:19;1.75;;;1.40;;
20828;SDS011;10575;50.124;8.582;2023-05-10T05:08:45;2.42;;;1.70;;
20828;SDS011;10575;50.124;8.582;2023-05-10T05:11:11;2.05;;;1.65;;
20828;SDS011;10575;50.124;8.582;2023-05-10T05:13:37;3.15;;;1.27;;
20828;SDS011;10575;50.124;8.582;2023-05-10T05:16:02;1.52;;;1.42;;
20828;SDS011;10575;50.124;8.582;2023-05-10T05:18:28;1.92;;;1.73;;
20828;SDS011;10575;50.124;8.582;2023-05-10T05:20:54;2.38;;;1.90;;
20828;SDS011;10575;50.124;8.582;2023-05-10T05:23:19;4.28;;;2.75;;
20828;SDS011;10575;50.124;8.582;2023-05-10T05:25:45;6.82;;;3.17;;
20828;SDS011;10575;50.124;8.582;2023-05-10T05:28:11;4.50;;;2.33;;
20828;SDS011;10575;50.124;8.582;2023-05-10T05:30:37;2.63;;;2.30;;
20828;SDS011;10575;50.124;8.582;2023-05-10T05:33:02;4.60;;;2.25;;
20828;SDS011;10575;50.124;8.582;2023-05-10T05:35:28;3.00;;;2.17;;
20828;SDS011;10575;50.124;8.582;2023-05-10T05:37:53;4.10;;;2.22;;
20828;SDS011;10575;50.124;8.582;2023-05-10T05:40:19;3.85;;;2.65;;
20828;SDS011;10575;50.124;8.582;2023-05-10T05:42:45;6.65;;;3.55;;
20828;SDS011;10575;50.124;8.582;2023-05-10T05:45:11;4.32;;;2.90;;
20828;SDS011;10575;50.124;8.582;2023-05-10T05:47:38;4.47;;;2.40;;
20828;SDS011;10575;50.124;8.582;2023-05-10T05:50:04;4.82;;;2.65;;
20828;SDS011;10575;50.124;8.582;2023-05-10T05:52:30;5.60;;;2.50;;
20828;SDS011;10575;50.124;8.582;2023-05-10T05:54:56;3.30;;;2.58;;
20828;SDS011;10575;50.124;8.582;2023-05-10T05:57:21;4.03;;;2.70;;
20828;SDS011;10575;50.124;8.582;2023-05-10T05:59:47;3.47;;;2.30;;
20828;SDS011;10575;50.124;8.582;2023-05-10T06:02:13;10.15;;;2.65;;
20828;SDS011;10575;50.124;8.582;2023-05-10T06:04:38;3.95;;;2.00;;
20828;SDS011;10575;50.124;8.582;2023-05-10T06:07:04;4.40;;;2.65;;
20828;SDS011;10575;50.124;8.582;2023-05-10T06:09:30;4.57;;;2.47;;
20828;SDS011;10575;50.124;8.582;2023-05-10T06:11:55;7.03;;;2.58;;
20828;SDS011;10575;50.124;8.582;2023-05-10T06:14:21;3.42;;;1.98;;
20828;SDS011;10575;50.124;8.582;2023-05-10T06:16:47;4.85;;;2.50;;
20828;SDS011;10575;50.124;8.582;2023-05-10T06:19:12;2.58;;;2.38;;
20828;SDS011;10575;50.124;8.582;2023-05-10T06:21:38;4.32;;;2.67;;
20828;SDS011;10575;50.124;8.582;2023-05-10T06:24:03;3.08;;;2.25;;
20828;SDS011;10575;50.124;8.582;2023-05-10T06:26:31;5.90;;;2.55;;
20828;SDS011;10575;50.124;8.582;2023-05-10T06:28:57;4.95;;;2.75;;
20828;SDS011;10575;50.124;8.582;2023-05-10T06:31:22;5.00;;;3.55;;
20828;SDS011;10575;50.124;8.582;2023-05-10T06:33:48;4.07;;;2.40;;
20828;SDS011;10575;50.124;8.582;2023-05-10T06:36:13;5.03;;;2.85;;
20828;SDS011;10575;50.124;8.582;2023-05-10T06:38:39;5.63;;;3.13;;
20828;SDS011;10575;50.124;8.582;2023-05-10T06:41:05;4.35;;;2.83;;
20828;SDS011;10575;50.124;8.582;2023-05-10T06:43:30;4.72;;;2.58;;
20828;SDS011;10575;50.124;8.582;2023-05-10T06:45:56;3.70;;;2.70;;
20828;SDS011;10575;50.124;8.582;2023-05-10T06:48:22;7.00;;;2.50;;
20828;SDS011;10575;50.124;8.582;2023-05-10T06:50:47;6.35;;;2.67;;
20828;SDS011;10575;50.124;8.582;2023-05-10T06:53:13;4.93;;;2.22;;
20828;SDS011;10575;50.124;8.582;2023-05-10T06:55:39;4.75;;;2.08;;
20828;SDS011;10575;50.124;8.582;2023-05-10T06:58:04;4.32;;;2.40;;
20828;SDS011;10575;50.124;8.582;2023-05-10T07:00:31;4.80;;;2.30;;
20828;SDS011;10575;50.124;8.582;2023-05-10T07:02:56;5.72;;;2.63;;
20828;SDS011;10575;50.124;8.582;2023-05-10T07:05:22;3.95;;;2.70;;
20828;SDS011;10575;50.124;8.582;2023-05-10T07:07:47;6.70;;;2.70;;
20828;SDS011;10575;50.124;8.582;2023-05-10T07:10:13;3.72;;;2.47;;
20828;SDS011;10575;50.124;8.582;2023-05-10T07:12:38;6.00;;;2.95;;
20828;SDS011;10575;50.124;8.582;2023-05-10T07:15:04;3.80;;;2.80;;
20828;SDS011;10575;50.124;8.582;2023-05-10T07:17:30;6.05;;;2.33;;
20828;SDS011;10575;50.124;8.582;2023-05-10T07:19:56;3.40;;;2.33;;
20828;SDS011;10575;50.124;8.582;2023-05-10T07:22:21;7.60;;;2.65;;
20828;SDS011;10575;50.124;8.582;2023-05-10T07:24:47;4.95;;;2.33;;
20828;SDS011;10575;50.124;8.582;2023-05-10T07:27:12;3.17;;;2.30;;
20828;SDS011;10575;50.124;8.582;2023-05-10T07:29:38;3.00;;;2.30;;
20828;SDS011;10575;50.124;8.582;2023-05-10T07:32:04;7.80;;;3.08;;
20828;SDS011;10575;50.124;8.582;2023-05-10T07:34:30;3.97;;;2.33;;
20828;SDS011;10575;50.124;8.582;2023-05-10T07:36:59;4.22;;;2.25;;
20828;SDS011;10575;50.124;8.582;2023-05-10T07:39:26;4.93;;;2.50;;
20828;SDS011;10575;50.124;8.582;2023-05-10T07:41:52;5.63;;;2.05;;
20828;SDS011;10575;50.124;8.582;2023-05-10T07:44:17;4.78;;;1.77;;
20828;SDS011;10575;50.124;8.582;2023-05-10T07:46:46;4.43;;;2.05;;
20828;SDS011;10575;50.124;8.582;2023-05-10T07:49:12;3.33;;;2.10;;
20828;SDS011;10575;50.124;8.582;2023-05-10T07:51:38;3.17;;;1.85;;
20828;SDS011;10575;50.124;8.582;2023-05-10T07:54:03;4.35;;;1.70;;
20828;SDS011;10575;50.124;8.582;2023-05-10T07:56:29;2.53;;;2.10;;
20828;SDS011;10575;50.124;8.582;2023-05-10T07:58:57;4.43;;;2.05;;
20828;SDS011;10575;50.124;8.582;2023-05-10T08:01:43;5.93;;;1.95;;
20828;SDS011;10575;50.124;8.582;2023-05-10T08:04:08;4.80;;;2.53;;
20828;SDS011;10575;50.124;8.582;2023-05-10T08:06:34;2.58;;;1.90;;
20828;SDS011;10575;50.124;8.582;2023-05-10T08:08:59;4.30;;;1.73;;
20828;SDS011;10575;50.124;8.582;2023-05-10T08:11:25;2.22;;;1.65;;
20828;SDS011;10575;50.124;8.582;2023-05-10T08:13:52;5.95;;;1.98;;
20828;SDS011;10575;50.124;8.582;2023-05-10T08:16:18;3.78;;;2.42;;
20828;SDS011;10575;50.124;8.582;2023-05-10T08:18:45;2.88;;;2.00;;
20828;SDS011;10575;50.124;8.582;2023-05-10T08:21:15;3.03;;;1.70;;
20828;SDS011;10575;50.124;8.582;2023-05-10T08:23:41;4.30;;;1.92;;
20828;SDS011;10575;50.124;8.582;2023-05-10T08:26:08;5.63;;;2.10;;
20828;SDS011;10575;50.124;8.582;2023-05-10T08:28:34;4.57;;;1.83;;
20828;SDS011;10575;50.124;8.582;2023-05-10T08:30:59;4.10;;;1.90;;
20828;SDS011;10575;50.124;8.582;2023-05-10T08:33:25;2.78;;;1.90;;
20828;SDS011;10575;50.124;8.582;2023-05-10T08:35:50;3.00;;;1.83;;
20828;SDS011;10575;50.124;8.582;2023-05-10T08:38:16;3.90;;;2.17;;
20828;SDS011;10575;50.124;8.582;2023-05-10T08:40:43;2.83;;;2.10;;
20828;SDS011;10575;50.124;8.582;2023-05-10T08:43:12;2.42;;;2.00;;
20828;SDS011;10575;50.124;8.582;2023-05-10T08:45:41;3.05;;;1.73;;
20828;SDS011;10575;50.124;8.582;2023-05-10T08:48:08;6.43;;;1.73;;
20828;SDS011;10575;50.124;8.582;2023-05-10T08:50:38;2.58;;;1.45;;
20828;SDS011;10575;50.124;8.582;2023-05-10T08:53:12;2.60;;;1.85;;
20828;SDS011;10575;50.124;8.582;2023-05-10T08:55:38;4.78;;;1.73;;
20828;SDS011;10575;50.124;8.582;2023-05-10T08:58:05;2.67;;;1.80;;
20828;SDS011;10575;50.124;8.582;2023-05-10T09:00:31;2.03;;;1.70;;
20828;SDS011;10575;50.124;8.582;2023-05-10T09:02:57;5.32;;;1.83;;
20828;SDS011;10575;50.124;8.582;2023-05-10T09:05:24;4.40;;;2.20;;
20828;SDS011;10575;50.124;8.582;2023-05-10T09:07:50;4.80;;;2.15;;
20828;SDS011;10575;50.124;8.582;2023-05-10T09:10:15;4.82;;;1.88;;
20828;SDS011;10575;50.124;8.582;2023-05-10T09:12:41;4.07;;;2.00;;
20828;SDS011;10575;50.124;8.582;2023-05-10T09:15:09;4.00;;;2.55;;
20828;SDS011;10575;50.124;8.582;2023-05-10T09:17:35;4.88;;;1.95;;
20828;SDS011;10575;50.124;8.582;2023-05-10T09:20:02;3.28;;;2.10;;
20828;SDS011;10575;50.124;8.582;2023-05-10T09:22:31;3.47;;;2.00;;
20828;SDS011;10575;50.124;8.582;2023-05-10T09:25:31;4.40;;;1.80;;
20828;SDS011;10575;50.124;8.582;2023-05-10T09:27:49;1.60;;;1.50;;
20828;SDS011;10575;50.124;8.582;2023-05-10T09:30:15;4.85;;;1.60;;
20828;SDS011;10575;50.124;8.582;2023-05-10T09:32:43;4.13;;;1.70;;
20828;SDS011;10575;50.124;8.582;2023-05-10T09:35:18;1.73;;;1.33;;
20828;SDS011;10575;50.124;8.582;2023-05-10T09:37:45;3.22;;;1.50;;
20828;SDS011;10575;50.124;8.582;2023-05-10T09:40:19;3.05;;;1.40;;
20828;SDS011;10575;50.124;8.582;2023-05-10T09:43:06;1.55;;;1.23;;
20828;SDS011;10575;50.124;8.582;2023-05-10T09:45:33;3.40;;;1.55;;
20828;SDS011;10575;50.124;8.582;2023-05-10T09:48:02;3.15;;;1.20;;
20828;SDS011;10575;50.124;8.582;2023-05-10T09:50:29;2.63;;;1.48;;
20828;SDS011;10575;50.124;8.582;2023-05-10T09:52:56;1.73;;;1.10;;
20828;SDS011;10575;50.124;8.582;2023-05-10T09:58:01;2.45;;;1.27;;
20828;SDS011;10575;50.124;8.582;2023-05-10T10:00:27;3.42;;;1.20;;
20828;SDS011;10575;50.124;8.582;2023-05-10T10:02:59;4.78;;;2.97;;
20828;SDS011;10575;50.124;8.582;2023-05-10T10:05:43;3.33;;;1.85;;
20828;SDS011;10575;50.124;8.582;2023-05-10T10:08:09;3.75;;;1.60;;
20828;SDS011;10575;50.124;8.582;2023-05-10T10:10:36;2.42;;;1.77;;
20828;SDS011;10575;50.124;8.582;2023-05-10T10:13:05;3.13;;;1.75;;
20828;SDS011;10575;50.124;8.582;2023-05-10T10:15:31;3.75;;;1.90;;
20828;SDS011;10575;50.124;8.582;2023-05-10T10:17:58;4.70;;;1.80;;
20828;SDS011;10575;50.124;8.582;2023-05-10T10:20:24;2.08;;;1.67;;
20828;SDS011;10575;50.124;8.582;2023-05-10T10:22:51;3.45;;;2.00;;
20828;SDS011;10575;50.124;8.582;2023-05-10T10:25:16;3.65;;;2.03;;
20828;SDS011;10575;50.124;8.582;2023-05-10T10:35:33;1.80;;;1.17;;
20828;SDS011;10575;50.124;8.582;2023-05-10T10:38:00;3.58;;;1.55;;
20828;SDS011;10575;50.124;8.582;2023-05-10T10:40:29;1.50;;;0.93;;
20828;SDS011;10575;50.124;8.582;2023-05-10T10:42:56;2.42;;;1.00;;
20828;SDS011;10575;50.124;8.582;2023-05-10T10:45:24;2.95;;;1.10;;
20828;SDS011;10575;50.124;8.582;2023-05-10T10:51:02;1.98;;;0.90;;
20828;SDS011;10575;50.124;8.582;2023-05-10T10:53:28;4.65;;;1.40;;
20828;SDS011;10575;50.124;8.582;2023-05-10T10:56:10;2.83;;;1.15;;
20828;SDS011;10575;50.124;8.582;2023-05-10T10:58:38;1.70;;;1.10;;
20828;SDS011;10575;50.124;8.582;2023-05-10T11:01:15;1.95;;;1.17;;
20828;SDS011;10575;50.124;8.582;2023-05-10T11:03:54;2.22;;;1.13;;
20828;SDS011;10575;50.124;8.582;2023-05-10T11:06:29;1.90;;;0.82;;
20828;SDS011;10575;50.124;8.582;2023-05-10T11:08:56;2.28;;;0.90;;
20828;SDS011;10575;50.124;8.582;2023-05-10T11:11:22;1.05;;;0.95;;
20828;SDS011;10575;50.124;8.582;2023-05-10T11:13:48;1.75;;;1.13;;
20828;SDS011;10575;50.124;8.582;2023-05-10T11:16:18;2.20;;;1.10;;
20828;SDS011;10575;50.124;8.582;2023-05-10T11:19:04;2.80;;;1.15;;
20828;SDS011;10575;50.124;8.582;2023-05-10T11:21:33;2.38;;;1.30;;
20828;SDS011;10575;50.124;8.582;2023-05-10T11:23:59;2.10;;;0.90;;
20828;SDS011;10575;50.124;8.582;2023-05-10T11:26:31;1.73;;;1.10;;
20828;SDS011;10575;50.124;8.582;2023-05-10T11:28:58;5.07;;;1.10;;
20828;SDS011;10575;50.124;8.582;2023-05-10T11:31:25;3.90;;;1.00;;
20828;SDS011;10575;50.124;8.582;2023-05-10T11:33:55;1.30;;;0.80;;
20828;SDS011;10575;50.124;8.582;2023-05-10T11:36:29;3.20;;;0.90;;
20828;SDS011;10575;50.124;8.582;2023-05-10T11:39:02;2.10;;;0.70;;
20828;SDS011;10575;50.124;8.582;2023-05-10T11:41:29;1.42;;;0.90;;
20828;SDS011;10575;50.124;8.582;2023-05-10T11:43:56;2.25;;;1.00;;
20828;SDS011;10575;50.124;8.582;2023-05-10T11:46:23;11.38;;;0.90;;
20828;SDS011;10575;50.124;8.582;2023-05-10T11:48:52;3.22;;;1.20;;
20828;SDS011;10575;50.124;8.582;2023-05-10T11:51:22;1.00;;;0.90;;
20828;SDS011;10575;50.124;8.582;2023-05-10T11:53:49;2.25;;;1.00;;
20828;SDS011;10575;50.124;8.582;2023-05-10T11:56:17;2.00;;;1.02;;
20828;SDS011;10575;50.124;8.582;2023-05-10T11:58:42;1.67;;;1.02;;
20828;SDS011;10575;50.124;8.582;2023-05-10T12:01:08;5.00;;;1.30;;
20828;SDS011;10575;50.124;8.582;2023-05-10T12:03:35;1.27;;;1.10;;
20828;SDS011;10575;50.124;8.582;2023-05-10T12:06:01;2.03;;;1.25;;
20828;SDS011;10575;50.124;8.582;2023-05-10T12:08:28;1.10;;;1.00;;
20828;SDS011;10575;50.124;8.582;2023-05-10T12:11:04;3.75;;;0.95;;
20828;SDS011;10575;50.124;8.582;2023-05-10T12:13:37;0.93;;;0.75;;
20828;SDS011;10575;50.124;8.582;2023-05-10T12:16:20;2.67;;;1.02;;
20828;SDS011;10575;50.124;8.582;2023-05-10T12:18:50;2.15;;;1.08;;
20828;SDS011;10575;50.124;8.582;2023-05-10T12:21:18;3.22;;;0.90;;
20828;SDS011;10575;50.124;8.582;2023-05-10T12:23:49;2.58;;;1.13;;
20828;SDS011;10575;50.124;8.582;2023-05-10T12:26:15;3.80;;;1.00;;
20828;SDS011;10575;50.124;8.582;2023-05-10T12:28:41;1.58;;;1.05;;
20828;SDS011;10575;50.124;8.582;2023-05-10T12:31:06;2.13;;;0.98;;
20828;SDS011;10575;50.124;8.582;2023-05-10T12:33:39;1.35;;;1.05;;
20828;SDS011;10575;50.124;8.582;2023-05-10T12:36:07;5.10;;;1.00;;
20828;SDS011;10575;50.124;8.582;2023-05-10T12:38:35;2.40;;;1.00;;
20828;SDS011;10575;50.124;8.582;2023-05-10T12:41:04;2.05;;;1.10;;
20828;SDS011;10575;50.124;8.582;2023-05-10T12:43:29;1.02;;;0.80;;
20828;SDS011;10575;50.124;8.582;2023-05-10T12:45:55;2.25;;;1.00;;
20828;SDS011;10575;50.124;8.582;2023-05-10T12:48:21;2.33;;;1.40;;
20828;SDS011;10575;50.124;8.582;2023-05-10T12:50:47;4.03;;;1.02;;
20828;SDS011;10575;50.124;8.582;2023-05-10T12:53:13;2.38;;;0.82;;
20828;SDS011;10575;50.124;8.582;2023-05-10T12:55:43;1.55;;;0.82;;
20828;SDS011;10575;50.124;8.582;2023-05-10T12:58:09;3.38;;;0.90;;
20828;SDS011;10575;50.124;8.582;2023-05-10T13:00:35;1.83;;;0.88;;
20828;SDS011;10575;50.124;8.582;2023-05-10T13:03:02;2.90;;;1.15;;
20828;SDS011;10575;50.124;8.582;2023-05-10T13:05:30;0.82;;;0.82;;
20828;SDS011;10575;50.124;8.582;2023-05-10T13:07:59;1.75;;;0.85;;
20828;SDS011;10575;50.124;8.582;2023-05-10T13:10:25;2.70;;;1.00;;
20828;SDS011;10575;50.124;8.582;2023-05-10T13:12:50;1.17;;;0.93;;
20828;SDS011;10575;50.124;8.582;2023-05-10T13:15:16;4.30;;;0.93;;
20828;SDS011;10575;50.124;8.582;2023-05-10T13:17:42;1.35;;;1.00;;
20828;SDS011;10575;50.124;8.582;2023-05-10T13:20:08;3.60;;;1.27;;
20828;SDS011;10575;50.124;8.582;2023-05-10T13:22:34;1.52;;;0.90;;
20828;SDS011;10575;50.124;8.582;2023-05-10T13:25:00;1.88;;;1.00;;
20828;SDS011;10575;50.124;8.582;2023-05-10T13:27:26;1.02;;;0.90;;
20828;SDS011;10575;50.124;8.582;2023-05-10T13:29:52;1.08;;;0.90;;
20828;SDS011;10575;50.124;8.582;2023-05-10T13:32:17;2.88;;;1.00;;
20828;SDS011;10575;50.124;8.582;2023-05-10T13:34:43;1.48;;;1.10;;
20828;SDS011;10575;50.124;8.582;2023-05-10T13:37:08;1.10;;;0.90;;
20828;SDS011;10575;50.124;8.582;2023-05-10T13:39:34;3.90;;;0.90;;
20828;SDS011;10575;50.124;8.582;2023-05-10T13:42:02;3.42;;;0.90;;
20828;SDS011;10575;50.124;8.582;2023-05-10T13:44:28;3.75;;;1.05;;
20828;SDS011;10575;50.124;8.582;2023-05-10T13:46:53;1.48;;;0.82;;
20828;SDS011;10575;50.124;8.582;2023-05-10T13:49:20;1.42;;;1.00;;
20828;SDS011;10575;50.124;8.582;2023-05-10T13:51:46;0.82;;;0.80;;
20828;SDS011;10575;50.124;8.582;2023-05-10T13:54:12;3.00;;;0.93;;
20828;SDS011;10575;50.124;8.582;2023-05-10T13:56:38;2.80;;;1.00;;
20828;SDS011;10575;50.124;8.582;2023-05-10T13:59:03;0.98;;;0.82;;
20828;SDS011;10575;50.124;8.582;2023-05-10T14:01:29;0.75;;;0.70;;
20828;SDS011;10575;50.124;8.582;2023-05-10T14:03:54;3.72;;;1.10;;
20828;SDS011;10575;50.124;8.582;2023-05-10T14:06:20;1.83;;;0.93;;
20828;SDS011;10575;50.124;8.582;2023-05-10T14:08:46;1.00;;;0.80;;
20828;SDS011;10575;50.124;8.582;2023-05-10T14:11:12;4.07;;;1.20;;
20828;SDS011;10575;50.124;8.582;2023-05-10T14:13:37;1.02;;;0.70;;
20828;SDS011;10575;50.124;8.582;2023-05-10T14:16:03;0.98;;;0.88;;
20828;SDS011;10575;50.124;8.582;2023-05-10T14:18:29;0.80;;;0.80;;
20828;SDS011;10575;50.124;8.582;2023-05-10T14:20:54;2.13;;;0.80;;
20828;SDS011;10575;50.124;8.582;2023-05-10T14:23:21;4.22;;;0.90;;
20828;SDS011;10575;50.124;8.582;2023-05-10T14:25:49;2.85;;;1.00;;
20828;SDS011;10575;50.124;8.582;2023-05-10T14:28:15;1.95;;;0.93;;
20828;SDS011;10575;50.124;8.582;2023-05-10T14:30:42;2.67;;;0.85;;
20828;SDS011;10575;50.124;8.582;2023-05-10T14:33:08;0.63;;;0.63;;
20828;SDS011;10575;50.124;8.582;2023-05-10T14:35:33;1.75;;;0.88;;
20828;SDS011;10575;50.124;8.582;2023-05-10T14:37:59;1.42;;;0.80;;
20828;SDS011;10575;50.124;8.582;2023-05-10T14:40:24;2.83;;;0.82;;
20828;SDS011;10575;50.124;8.582;2023-05-10T14:42:50;1.27;;;0.80;;
20828;SDS011;10575;50.124;8.582;2023-05-10T14:45:17;3.05;;;0.95;;
20828;SDS011;10575;50.124;8.582;2023-05-10T14:47:43;0.70;;;0.60;;
20828;SDS011;10575;50.124;8.582;2023-05-10T14:50:09;1.40;;;0.90;;
20828;SDS011;10575;50.124;8.582;2023-05-10T14:52:35;2.05;;;0.80;;
20828;SDS011;10575;50.124;8.582;2023-05-10T14:55:01;0.90;;;0.73;;
20828;SDS011;10575;50.124;8.582;2023-05-10T14:57:26;1.92;;;0.98;;
20828;SDS011;10575;50.124;8.582;2023-05-10T14:59:54;5.70;;;1.13;;
20828;SDS011;10575;50.124;8.582;2023-05-10T15:02:21;4.80;;;1.10;;
20828;SDS011;10575;50.124;8.582;2023-05-10T15:04:46;2.83;;;1.02;;
20828;SDS011;10575;50.124;8.582;2023-05-10T15:07:12;2.35;;;1.10;;
20828;SDS011;10575;50.124;8.582;2023-05-10T15:09:39;0.85;;;0.80;;
20828;SDS011;10575;50.124;8.582;2023-05-10T15:12:05;1.33;;;1.00;;
20828;SDS011;10575;50.124;8.582;2023-05-10T15:14:30;1.75;;;1.15;;
20828;SDS011;10575;50.124;8.582;2023-05-10T15:16:57;1.10;;;1.00;;
20828;SDS011;10575;50.124;8.582;2023-05-10T15:19:23;2.05;;;1.33;;
20828;SDS011;10575;50.124;8.582;2023-05-10T15:21:49;3.80;;;1.02;;
20828;SDS011;10575;50.124;8.582;2023-05-10T15:24:14;1.02;;;0.85;;
20828;SDS011;10575;50.124;8.582;2023-05-10T15:26:40;1.20;;;0.90;;